VIR47KY EGLL-CYYZ
Flight info
| Callsign | VIR47KY |
|---|---|
| Flight time | N/A |
| Altitude | 36000 |
| Route | ULTIB T420 TNT UL28 PENIL M144 BAGSO DCT DOGAL/M085F380 DCT 54N020W 53N030W 5130N04000W 50N050W DCT ELSIR/N0488F380 N412A MIILS/N0496F400 DCT VILRO DCT SAVEX Q806 TUKIR RAGID6 |
| Aircraft | A35K/H-SDE2E3GHIJ3J4J5LM1ORWXY/LB1D1 |
Departure
| Time | N/A |
|---|---|
| Airport | London Heathrow Airport (EGLL) |
Arrival
| Time | 2026-05-08 01:46 |
|---|---|
| Airport | Toronto Pearson International Airport (CYYZ) |
| Time | Latitude | Longitude | Altitude | Speed | Heading |
|---|---|---|---|---|---|
| 2026-05-08 01:30 | 44.07735 | -78.49535 | 20734 ft | 352 kts | 209° |
| 2026-05-08 01:31 | 44.05724 | -78.51388 | 19781 ft | 343 kts | 224° |
| 2026-05-08 01:31 | 44.04263 | -78.53922 | 18846 ft | 333 kts | 244° |
| 2026-05-08 01:31 | 44.03572 | -78.56930 | 17954 ft | 324 kts | 264° |
| 2026-05-08 01:31 | 44.03531 | -78.60030 | 17021 ft | 317 kts | 272° |
| 2026-05-08 01:32 | 44.03636 | -78.63036 | 16111 ft | 312 kts | 272° |
| 2026-05-08 01:32 | 44.03746 | -78.66025 | 15227 ft | 306 kts | 272° |
| 2026-05-08 01:32 | 44.03845 | -78.68957 | 14379 ft | 300 kts | 272° |
| 2026-05-08 01:32 | 44.03937 | -78.71834 | 13506 ft | 295 kts | 272° |
| 2026-05-08 01:33 | 44.04023 | -78.74660 | 12562 ft | 290 kts | 272° |
| 2026-05-08 01:33 | 44.04091 | -78.77451 | 11683 ft | 286 kts | 270° |
| 2026-05-08 01:33 | 44.03815 | -78.80115 | 11170 ft | 278 kts | 252° |
| 2026-05-08 01:33 | 44.02899 | -78.82413 | 11007 ft | 268 kts | 235° |
| 2026-05-08 01:34 | 44.01679 | -78.84348 | 10992 ft | 266 kts | 231° |
| 2026-05-08 01:34 | 44.00426 | -78.86208 | 10741 ft | 261 kts | 231° |
| 2026-05-08 01:34 | 43.99172 | -78.88069 | 10192 ft | 265 kts | 231° |
| 2026-05-08 01:34 | 43.97907 | -78.89956 | 9666 ft | 266 kts | 231° |
| 2026-05-08 01:35 | 43.96651 | -78.91832 | 9169 ft | 265 kts | 231° |
| 2026-05-08 01:35 | 43.95411 | -78.93688 | 8646 ft | 264 kts | 231° |
| 2026-05-08 01:35 | 43.94162 | -78.95555 | 8258 ft | 260 kts | 231° |
| 2026-05-08 01:35 | 43.92961 | -78.97347 | 8085 ft | 247 kts | 231° |
| 2026-05-08 01:36 | 43.91824 | -78.99043 | 7951 ft | 234 kts | 231° |
| 2026-05-08 01:36 | 43.90736 | -79.00667 | 7793 ft | 224 kts | 231° |
| 2026-05-08 01:36 | 43.89698 | -79.02216 | 7644 ft | 214 kts | 231° |
| 2026-05-08 01:36 | 43.88705 | -79.03699 | 7468 ft | 205 kts | 231° |
| 2026-05-08 01:37 | 43.87779 | -79.05139 | 7214 ft | 199 kts | 236° |
| 2026-05-08 01:37 | 43.87245 | -79.06404 | 7031 ft | 193 kts | 251° |
| 2026-05-08 01:37 | 43.87007 | -79.08220 | 6996 ft | 193 kts | 269° |
| 2026-05-08 01:37 | 43.87031 | -79.10086 | 6998 ft | 193 kts | 272° |
| 2026-05-08 01:38 | 43.86996 | -79.11953 | 6994 ft | 194 kts | 261° |
| 2026-05-08 01:38 | 43.86660 | -79.13744 | 6998 ft | 194 kts | 253° |
| 2026-05-08 01:38 | 43.86229 | -79.15500 | 6757 ft | 192 kts | 252° |
| 2026-05-08 01:38 | 43.85772 | -79.17249 | 6372 ft | 194 kts | 251° |
| 2026-05-08 01:39 | 43.85302 | -79.19009 | 6036 ft | 194 kts | 251° |
| 2026-05-08 01:39 | 43.84825 | -79.20773 | 5667 ft | 195 kts | 251° |
| 2026-05-08 01:39 | 43.84351 | -79.22521 | 5317 ft | 196 kts | 251° |
| 2026-05-08 01:39 | 43.83867 | -79.24293 | 4976 ft | 196 kts | 251° |
| 2026-05-08 01:40 | 43.83384 | -79.26063 | 4618 ft | 197 kts | 250° |
| 2026-05-08 01:40 | 43.82899 | -79.27838 | 4266 ft | 197 kts | 250° |
| 2026-05-08 01:40 | 43.82413 | -79.29613 | 4037 ft | 196 kts | 250° |
| 2026-05-08 01:40 | 43.81933 | -79.31362 | 4006 ft | 197 kts | 250° |
| 2026-05-08 01:41 | 43.81445 | -79.33142 | 4006 ft | 197 kts | 250° |
| 2026-05-08 01:41 | 43.80957 | -79.34920 | 4005 ft | 197 kts | 250° |
| 2026-05-08 01:41 | 43.80473 | -79.36682 | 3800 ft | 194 kts | 250° |
| 2026-05-08 01:41 | 43.79995 | -79.38421 | 3446 ft | 196 kts | 250° |
| 2026-05-08 01:42 | 43.79506 | -79.40198 | 3108 ft | 197 kts | 250° |
| 2026-05-08 01:42 | 43.79017 | -79.41972 | 3011 ft | 198 kts | 250° |
| 2026-05-08 01:42 | 43.78409 | -79.43681 | 3005 ft | 197 kts | 236° |
| 2026-05-08 01:42 | 43.77571 | -79.45059 | 3005 ft | 181 kts | 228° |
| 2026-05-08 01:43 | 43.76724 | -79.46302 | 3004 ft | 176 kts | 229° |
| 2026-05-08 01:43 | 43.75881 | -79.47540 | 2998 ft | 177 kts | 228° |
| 2026-05-08 01:43 | 43.75037 | -79.48776 | 2833 ft | 176 kts | 228° |
| 2026-05-08 01:43 | 43.74196 | -79.50013 | 2576 ft | 177 kts | 228° |
| 2026-05-08 01:44 | 43.73352 | -79.51242 | 2346 ft | 173 kts | 228° |
| 2026-05-08 01:44 | 43.72536 | -79.52429 | 2082 ft | 165 kts | 229° |
| 2026-05-08 01:44 | 43.71769 | -79.53548 | 1858 ft | 155 kts | 228° |
| 2026-05-08 01:44 | 43.71060 | -79.54579 | 1654 ft | 144 kts | 229° |
| 2026-05-08 01:45 | 43.70391 | -79.55562 | 1455 ft | 137 kts | 229° |
| 2026-05-08 01:45 | 43.69730 | -79.56543 | 1283 ft | 142 kts | 228° |
| 2026-05-08 01:45 | 43.69043 | -79.57512 | 1056 ft | 140 kts | 226° |
| 2026-05-08 01:45 | 43.68377 | -79.58478 | 879 ft | 139 kts | 227° |
| 2026-05-08 01:46 | 43.67710 | -79.59448 | 670 ft | 139 kts | 228° |
| 2026-05-08 01:46 | 43.67062 | -79.60394 | 571 ft | 120 kts | 226° |
| 2026-05-08 01:46 | 43.66658 | -79.60983 | 572 ft | 49 kts | 226° |
| 2026-05-08 01:46 | 43.66451 | -79.61323 | 568 ft | 46 kts | 243° |
| 2026-05-08 01:47 | 43.66375 | -79.61642 | 571 ft | 23 kts | 273° |
| 2026-05-08 01:47 | 43.66455 | -79.61796 | 573 ft | 20 kts | 316° |
| 2026-05-08 01:47 | 43.66563 | -79.61937 | 567 ft | 19 kts | 317° |
| 2026-05-08 01:48 | 43.66719 | -79.61943 | 579 ft | 18 kts | 40° |
| 2026-05-08 01:48 | 43.66817 | -79.61823 | 578 ft | 20 kts | 41° |
| 2026-05-08 01:48 | 43.66930 | -79.61681 | 580 ft | 23 kts | 43° |
| 2026-05-08 01:48 | 43.67055 | -79.61522 | 582 ft | 25 kts | 43° |
| 2026-05-08 01:49 | 43.67183 | -79.61352 | 579 ft | 18 kts | 50° |
| 2026-05-08 01:49 | 43.67264 | -79.61265 | 573 ft | 13 kts | 352° |
| 2026-05-08 01:49 | 43.67345 | -79.61350 | 573 ft | 16 kts | 316° |
| 2026-05-08 01:49 | 43.67432 | -79.61464 | 571 ft | 19 kts | 316° |
| 2026-05-08 01:50 | 43.67534 | -79.61598 | 571 ft | 22 kts | 316° |
| 2026-05-08 01:50 | 43.67648 | -79.61747 | 575 ft | 24 kts | 317° |
| 2026-05-08 01:50 | 43.67769 | -79.61903 | 574 ft | 21 kts | 316° |
| 2026-05-08 01:50 | 43.67850 | -79.62009 | 573 ft | 13 kts | 318° |
| 2026-05-08 01:51 | 43.67941 | -79.62045 | 570 ft | 14 kts | 24° |
| 2026-05-08 01:51 | 43.68040 | -79.61975 | 574 ft | 17 kts | 34° |
| 2026-05-08 01:51 | 43.68135 | -79.61851 | 576 ft | 20 kts | 46° |
| 2026-05-08 01:51 | 43.68171 | -79.61832 | 576 ft | 5 kts | 257° |
| 2026-05-08 01:52 | 43.68157 | -79.61814 | 574 ft | 4 kts | 69° |
| 2026-05-08 01:52 | 43.68170 | -79.61830 | 576 ft | 2 kts | 252° |
| 2026-05-08 01:52 | 43.68159 | -79.61820 | 575 ft | 3 kts | 123° |
| 2026-05-08 01:52 | 43.68187 | -79.61820 | 576 ft | 2 kts | 326° |
| 2026-05-08 01:53 | 43.68187 | -79.61836 | 576 ft | 1 kts | 265° |
| 2026-05-08 01:53 | 43.68185 | -79.61877 | 573 ft | 4 kts | 285° |
| 2026-05-08 01:53 | 43.68200 | -79.61920 | 571 ft | 4 kts | 298° |